Terminal Aerodrome Forecast
Issued by NWS

Home | Current Version | Previous Version | Text Only | Print | Product List | Glossary On
Versions: 1 2 3 4 5 6 7 8 9 10 11 12 13
000
FTUS44 KBMX 272329
TAFEET
TAF
KEET 272329Z 2800/2824 35007KT P6SM SCT060
     FM280100 00000KT P6SM FEW060
     FM281500 12007KT P6SM SCT040=

USA.gov is the U.S. government's official web portal to all federal, state and local government web resources and services.